RCH835 WIII-RJTY
Flight info
| Callsign | RCH835 |
|---|---|
| Flight time | N/A |
| Altitude | 33000 |
| Route | AMBOY P648 VJN80/N0438F350 P648 VJN M646 MIA/N0435F360 A461 CAB/N0437F350 R597 VIGOR A590 GURAG/N0431F370 A590 BUBDO Y83 MOE/N0433F380 V18 XAC/N0433F390 Y588 EDARR |
| Aircraft | C17/H-SDE1E3FGHIJ5KM1RTUWXYZ/LB1D1 |
Departure
| Time | 2026-05-01 09:58 |
|---|---|
| Airport | Soekarno-Hatta International Airport (WIII) |
Arrival
| Time | N/A |
|---|---|
| Airport | Yokota Air Base (RJTY) |
| Time | Latitude | Longitude | Altitude | Speed | Heading |
|---|---|---|---|---|---|
| 2026-05-01 09:37 | -6.12454 | 106.63990 | 33 ft | 0 kts | 157° |
| 2026-05-01 09:53 | -6.12460 | 106.63989 | 33 ft | 2 kts | 197° |
| 2026-05-01 09:54 | -6.12458 | 106.63973 | 35 ft | 3 kts | 325° |
| 2026-05-01 09:54 | -6.12406 | 106.63965 | 33 ft | 11 kts | 353° |
| 2026-05-01 09:54 | -6.12338 | 106.63952 | 35 ft | 9 kts | 341° |
| 2026-05-01 09:54 | -6.12288 | 106.63930 | 35 ft | 8 kts | 335° |
| 2026-05-01 09:55 | -6.12228 | 106.63902 | 36 ft | 10 kts | 339° |
| 2026-05-01 09:55 | -6.12167 | 106.63895 | 38 ft | 8 kts | 9° |
| 2026-05-01 09:55 | -6.12102 | 106.63912 | 37 ft | 10 kts | 14° |
| 2026-05-01 09:55 | -6.12079 | 106.63937 | 37 ft | 0 kts | 68° |
| 2026-05-01 09:57 | -6.12078 | 106.63939 | 37 ft | 3 kts | 69° |
| 2026-05-01 09:58 | -6.12008 | 106.64116 | 36 ft | 60 kts | 68° |
| 2026-05-01 09:58 | -6.11768 | 106.64723 | 39 ft | 124 kts | 67° |
| 2026-05-01 09:58 | -6.11385 | 106.65638 | 262 ft | 152 kts | 68° |
| 2026-05-01 09:58 | -6.10938 | 106.66676 | 734 ft | 174 kts | 65° |
| 2026-05-01 09:59 | -6.10444 | 106.67846 | 1281 ft | 189 kts | 66° |
| 2026-05-01 09:59 | -6.09635 | 106.68952 | 1759 ft | 207 kts | 45° |
| 2026-05-01 09:59 | -6.08528 | 106.69983 | 2308 ft | 227 kts | 44° |
| 2026-05-01 09:59 | -6.07372 | 106.71151 | 3042 ft | 245 kts | 47° |
| 2026-05-01 10:00 | -6.06149 | 106.72446 | 3775 ft | 264 kts | 47° |
| 2026-05-01 10:00 | -6.04831 | 106.73818 | 4591 ft | 281 kts | 47° |
| 2026-05-01 10:00 | -6.03909 | 106.74773 | 5133 ft | 293 kts | 47° |
| 2026-05-01 10:00 | -6.01958 | 106.76800 | 6391 ft | 309 kts | 48° |
| 2026-05-01 10:01 | -6.00441 | 106.78383 | 7345 ft | 320 kts | 48° |
| 2026-05-01 10:01 | -5.98891 | 106.79994 | 8314 ft | 330 kts | 47° |
| 2026-05-01 10:01 | -5.97280 | 106.81668 | 9421 ft | 335 kts | 47° |
| 2026-05-01 10:01 | -5.95807 | 106.83458 | 10592 ft | 331 kts | 60° |
| 2026-05-01 10:02 | -5.95048 | 106.84784 | 11375 ft | 329 kts | 63° |
| 2026-05-01 10:02 | -5.93962 | 106.86796 | 12550 ft | 327 kts | 63° |
| 2026-05-01 10:02 | -5.92508 | 106.89476 | 13982 ft | 326 kts | 62° |
| 2026-05-01 10:02 | -5.91775 | 106.90803 | 14507 ft | 331 kts | 62° |
| 2026-05-01 10:03 | -5.90620 | 106.92900 | 14864 ft | 354 kts | 62° |
| 2026-05-01 10:03 | -5.88985 | 106.95881 | 15365 ft | 381 kts | 62° |
| 2026-05-01 10:03 | -5.87686 | 106.98245 | 16034 ft | 392 kts | 62° |
| 2026-05-01 10:03 | -5.86350 | 107.00677 | 16704 ft | 403 kts | 62° |
| 2026-05-01 10:04 | -5.85445 | 107.02325 | 17165 ft | 410 kts | 62° |
| 2026-05-01 10:04 | -5.84048 | 107.04866 | 17854 ft | 421 kts | 62° |
| 2026-05-01 10:04 | -5.82618 | 107.07468 | 18492 ft | 430 kts | 62° |
| 2026-05-01 10:04 | -5.81156 | 107.10128 | 19105 ft | 439 kts | 62° |
| 2026-05-01 10:05 | -5.79667 | 107.12836 | 19737 ft | 447 kts | 62° |
| 2026-05-01 10:05 | -5.78155 | 107.15586 | 20444 ft | 453 kts | 62° |
| 2026-05-01 10:05 | -5.76125 | 107.19277 | 21388 ft | 460 kts | 62° |
| 2026-05-01 10:05 | -5.75077 | 107.21182 | 21886 ft | 463 kts | 62° |
| 2026-05-01 10:06 | -5.73514 | 107.24023 | 22635 ft | 467 kts | 61° |
| 2026-05-01 10:06 | -5.71959 | 107.26848 | 23392 ft | 470 kts | 61° |
| 2026-05-01 10:06 | -5.70371 | 107.29733 | 24032 ft | 473 kts | 61° |
| 2026-05-01 10:06 | -5.68775 | 107.32634 | 24687 ft | 476 kts | 61° |
| 2026-05-01 10:07 | -5.67171 | 107.35548 | 25350 ft | 478 kts | 61° |
| 2026-05-01 10:07 | -5.65561 | 107.38473 | 26035 ft | 480 kts | 61° |
| 2026-05-01 10:07 | -5.63943 | 107.41411 | 26725 ft | 481 kts | 61° |
| 2026-05-01 10:07 | -5.62321 | 107.44355 | 27451 ft | 482 kts | 61° |
| 2026-05-01 10:08 | -5.59072 | 107.50254 | 28944 ft | 483 kts | 61° |
| 2026-05-01 10:08 | -5.57447 | 107.53204 | 29707 ft | 483 kts | 61° |
| 2026-05-01 10:08 | -5.55844 | 107.56112 | 30385 ft | 482 kts | 61° |
| 2026-05-01 10:09 | -5.54224 | 107.59052 | 31067 ft | 481 kts | 61° |
| 2026-05-01 10:09 | -5.52609 | 107.61983 | 31748 ft | 479 kts | 61° |
| 2026-05-01 10:09 | -5.51002 | 107.64899 | 32470 ft | 477 kts | 61° |
| 2026-05-01 10:09 | -5.49390 | 107.67823 | 32828 ft | 485 kts | 61° |
| 2026-05-01 10:10 | -5.47741 | 107.70815 | 32841 ft | 488 kts | 61° |
| 2026-05-01 10:10 | -5.46133 | 107.73729 | 32832 ft | 466 kts | 60° |
| 2026-05-01 10:10 | -5.42074 | 107.78537 | 32846 ft | 461 kts | 34° |
| 2026-05-01 10:11 | -5.39223 | 107.80047 | 32863 ft | 469 kts | 20° |
| 2026-05-01 10:11 | -5.36075 | 107.81042 | 32861 ft | 480 kts | 17° |
| 2026-05-01 10:11 | -5.29633 | 107.82842 | 32849 ft | 474 kts | 17° |
| 2026-05-01 10:12 | -5.23365 | 107.84699 | 32840 ft | 470 kts | 17° |
| 2026-05-01 10:13 | -5.13862 | 107.87445 | 32849 ft | 474 kts | 17° |
| 2026-05-01 10:13 | -5.07591 | 107.89275 | 32843 ft | 472 kts | 17° |
| 2026-05-01 10:14 | -4.98079 | 107.92036 | 32845 ft | 475 kts | 17° |
| 2026-05-01 10:14 | -4.91746 | 107.93875 | 32842 ft | 473 kts | 17° |
| 2026-05-01 10:15 | -4.85424 | 107.95710 | 32846 ft | 474 kts | 17° |
| 2026-05-01 10:15 | -4.79120 | 107.97542 | 32854 ft | 475 kts | 17° |
| 2026-05-01 10:16 | -4.72788 | 107.99387 | 32848 ft | 473 kts | 17° |
| 2026-05-01 10:17 | -4.63276 | 108.02155 | 32848 ft | 476 kts | 17° |
| 2026-05-01 10:17 | -4.53754 | 108.04924 | 32843 ft | 474 kts | 17° |
| 2026-05-01 10:18 | -4.44276 | 108.07681 | 32843 ft | 476 kts | 17° |
| 2026-05-01 10:19 | -4.37925 | 108.09527 | 32843 ft | 474 kts | 17° |
| 2026-05-01 10:19 | -4.31590 | 108.11369 | 32838 ft | 474 kts | 17° |
| 2026-05-01 10:20 | -4.22118 | 108.14123 | 32843 ft | 474 kts | 17° |
| 2026-05-01 10:20 | -4.15785 | 108.15966 | 32841 ft | 473 kts | 18° |
| 2026-05-01 10:21 | -4.12761 | 108.17243 | 32868 ft | 471 kts | 33° |
| 2026-05-01 10:21 | -4.07498 | 108.21218 | 32855 ft | 476 kts | 39° |
| 2026-05-01 10:22 | -3.99764 | 108.27289 | 32846 ft | 472 kts | 38° |
| 2026-05-01 10:23 | -3.91986 | 108.33393 | 32852 ft | 474 kts | 39° |
| 2026-05-01 10:23 | -3.84207 | 108.39474 | 32846 ft | 472 kts | 39° |
| 2026-05-01 10:24 | -3.73846 | 108.47577 | 32853 ft | 478 kts | 39° |
| 2026-05-01 10:25 | -3.63376 | 108.55764 | 32847 ft | 476 kts | 39° |
| 2026-05-01 10:26 | -3.58147 | 108.59852 | 32857 ft | 479 kts | 39° |
| 2026-05-01 10:27 | -3.47697 | 108.68019 | 32853 ft | 477 kts | 39° |